Time;durP1;ratioP1;P1;durP2;ratioP2;P2;SDS_P1;SDS_P2;PMS_P1;PMS_P2;Temp;Humidity;BMP_temperature;BMP_pressure;BME280_temperature;BME280_humidity;BME280_pressure;Samples;Min_cycle;Max_cycle;Signal;HPM_P1;HPM_P2
2021/03/23 00:00:45;;;;;;;;;;;;;;;15.90;67.24;100672.72;5006477;28;1354;-56
2021/03/23 00:03:21;;;;;;;;;;;;;;;15.88;66.60;100674.66;5005418;28;1547;-57
2021/03/23 00:05:46;;;;;;;;;;;;;;;15.90;66.09;100677.22;5009296;28;1558;-57
2021/03/23 00:08:20;;;;;;;;;;;;;;;15.88;66.22;100673.84;5006458;28;1902;-62
2021/03/23 00:10:46;;;;;;;;;;;;;;;15.88;67.37;100664.00;4999377;28;1618;-57
2021/03/23 00:13:11;;;;;;;;;;;;;;;15.88;66.77;100666.66;5011473;28;1768;-57
2021/03/23 00:15:36;;;;;;;;;;;;;;;15.88;66.47;100677.34;5006346;28;1350;-57
2021/03/23 00:18:05;;;;;;;;;;;;;;;15.89;66.38;100673.69;5003714;28;1366;-57
2021/03/23 00:20:31;;;;;;;;;;;;;;;15.91;66.96;100669.09;5007393;28;1343;-57
2021/03/23 00:22:56;;;;;;;;;;;;;;;15.86;67.30;100660.59;5010116;28;830;-57
2021/03/23 00:25:22;;;;;;;;;;;;;;;15.86;66.34;100678.44;5009914;28;1823;-62
2021/03/23 00:27:47;;;;;;;;;;;;;;;15.85;67.57;100668.72;5000051;28;1985;-62
2021/03/23 00:30:13;;;;;;;;;;;;;;;15.85;66.26;100677.56;5007192;28;1315;-62
2021/03/23 00:32:38;;;;;;;;;;;;;;;15.87;67.42;100683.63;5006646;28;1349;-57
2021/03/23 00:35:06;;;;;;;;;;;;;;;15.84;66.06;100683.03;5006135;28;1547;-62
2021/03/23 00:37:32;;;;;;;;;;;;;;;15.87;67.07;100691.63;5010578;28;1470;-57
2021/03/23 00:39:58;;;;;;;;;;;;;;;15.86;66.95;100691.75;5008680;28;1558;-62
2021/03/23 00:42:24;;;;;;;;;;;;;;;15.84;66.86;100689.22;5001301;28;848;-62
2021/03/23 00:44:50;;;;;;;;;;;;;;;15.84;66.70;100694.53;5010315;28;1768;-57
2021/03/23 00:47:15;;;;;;;;;;;;;;;15.81;66.33;100689.44;5003549;28;1902;-57
2021/03/23 00:49:40;;;;;;;;;;;;;;;15.80;67.27;100687.75;5011435;28;1478;-62
2021/03/23 00:52:06;;;;;;;;;;;;;;;15.80;66.58;100685.06;5007511;28;1555;-57
2021/03/23 00:54:31;;;;;;;;;;;;;;;15.79;66.68;100683.38;5007671;28;1509;-62
2021/03/23 00:56:57;;;;;;;;;;;;;;;15.79;67.79;100690.53;5004629;28;880;-62
2021/03/23 00:59:22;;;;;;;;;;;;;;;15.75;66.55;100679.22;5022788;28;1919;-63
2021/03/23 01:01:48;;;;;;;;;;;;;;;15.73;67.27;100686.50;5007239;28;1479;-57
2021/03/23 01:04:13;;;;;;;;;;;;;;;15.74;66.66;100682.00;5008041;28;1559;-57
2021/03/23 01:06:38;;;;;;;;;;;;;;;15.73;67.02;100689.16;5006558;28;1362;-57
2021/03/23 01:09:04;;;;;;;;;;;;;;;15.71;67.59;100685.72;5008208;28;1947;-62
2021/03/23 01:11:30;;;;;;;;;;;;;;;15.80;67.89;100697.56;5029097;28;1252;-62
2021/03/23 01:13:55;;;;;;;;;;;;;;;15.73;66.61;100689.16;5004247;28;1793;-62
2021/03/23 01:16:20;;;;;;;;;;;;;;;15.73;67.66;100686.50;5006870;28;1319;-57
2021/03/23 01:18:46;;;;;;;;;;;;;;;15.74;67.60;100695.34;5009062;28;1356;-57
2021/03/23 01:21:11;;;;;;;;;;;;;;;15.72;67.55;100695.44;5005205;28;1624;-62
2021/03/23 01:23:36;;;;;;;;;;;;;;;15.72;67.06;100698.09;5008750;28;1542;-62
2021/03/23 01:26:02;;;;;;;;;;;;;;;15.72;66.82;100700.78;5006322;28;1464;-62
2021/03/23 01:28:27;;;;;;;;;;;;;;;15.68;66.63;100700.16;5000989;28;1906;-57
2021/03/23 01:30:52;;;;;;;;;;;;;;;15.68;66.69;100701.97;5012177;28;1342;-57
2021/03/23 01:33:18;;;;;;;;;;;;;;;15.68;66.98;100701.97;5008650;28;1394;-57
2021/03/23 01:35:43;;;;;;;;;;;;;;;15.67;67.74;100701.09;5006964;28;1609;-57
2021/03/23 01:38:09;;;;;;;;;;;;;;;15.64;67.37;100703.16;5007026;28;1378;-56
2021/03/23 01:40:36;;;;;;;;;;;;;;;15.67;67.44;100697.59;5009025;28;791;-62
2021/03/23 01:43:03;;;;;;;;;;;;;;;15.65;67.56;100719.03;4999573;28;1552;-57
2021/03/23 01:45:31;;;;;;;;;;;;;;;15.67;67.66;100708.25;5005694;28;1521;-62
2021/03/23 01:47:58;;;;;;;;;;;;;;;15.65;67.07;100715.50;5006861;28;1965;-62
2021/03/23 01:50:23;;;;;;;;;;;;;;;15.65;67.31;100695.03;5008888;28;750;-63
2021/03/23 01:52:52;;;;;;;;;;;;;;;15.64;66.99;100704.00;5008668;28;1489;-62
2021/03/23 01:55:18;;;;;;;;;;;;;;;15.68;67.69;100712.63;5003843;28;1437;-57
2021/03/23 01:57:46;;;;;;;;;;;;;;;15.64;67.00;100709.34;5001561;28;1326;-57
2021/03/23 02:00:11;;;;;;;;;;;;;;;15.65;67.41;100699.53;5007112;28;1590;-56
2021/03/23 02:02:37;;;;;;;;;;;;;;;15.65;67.05;100710.19;5008838;28;1385;-56
2021/03/23 02:05:04;;;;;;;;;;;;;;;15.63;68.01;100707.63;5008266;28;1737;-57
2021/03/23 02:07:29;;;;;;;;;;;;;;;15.62;67.31;100713.94;5007576;28;1951;-57
2021/03/23 02:09:55;;;;;;;;;;;;;;;15.59;67.42;100718.66;5006026;28;1601;-57
2021/03/23 02:12:29;;;;;;;;;;;;;;;15.61;66.81;100725.56;4999221;28;1103;-62
2021/03/23 02:14:54;;;;;;;;;;;;;;;15.61;67.41;100732.72;5015114;28;1386;-57
2021/03/23 02:17:29;;;;;;;;;;;;;;;15.58;67.30;100724.91;5009392;28;1673;-62
2021/03/23 02:19:56;;;;;;;;;;;;;;;15.60;66.52;100733.69;5008103;28;1525;-62
2021/03/23 02:22:21;;;;;;;;;;;;;;;15.59;68.14;100737.31;5006316;28;1773;-63
2021/03/23 02:24:47;;;;;;;;;;;;;;;15.61;66.87;100754.03;5005329;28;1598;-62
2021/03/23 02:27:12;;;;;;;;;;;;;;;15.61;67.81;100756.69;5012035;28;1910;-62
2021/03/23 02:29:38;;;;;;;;;;;;;;;15.58;67.54;100767.56;5008015;28;1717;-57
2021/03/23 02:32:03;;;;;;;;;;;;;;;15.57;67.32;100771.22;5010856;28;1572;-57
2021/03/23 02:34:29;;;;;;;;;;;;;;;15.55;67.91;100771.31;5005640;28;1602;-57
2021/03/23 02:36:54;;;;;;;;;;;;;;;15.54;66.86;100782.09;5005419;28;1484;-63
2021/03/23 02:39:22;;;;;;;;;;;;;;;15.51;67.82;100775.19;5005583;28;1539;-63
2021/03/23 02:41:47;;;;;;;;;;;;;;;15.52;66.85;100791.06;5003196;28;904;-62
2021/03/23 02:44:12;;;;;;;;;;;;;;;15.56;67.13;100801.47;5000994;28;1784;-63
2021/03/23 02:46:38;;;;;;;;;;;;;;;15.50;68.08;100766.34;5007392;28;1482;-62
2021/03/23 02:49:04;;;;;;;;;;;;;;;15.50;66.88;100766.34;5006769;28;1890;-58
2021/03/23 02:51:30;;;;;;;;;;;;;;;15.53;68.05;100762.59;5005475;28;1578;-57
2021/03/23 02:53:55;;;;;;;;;;;;;;;15.48;67.40;100762.94;5004505;28;1609;-63
2021/03/23 02:56:20;;;;;;;;;;;;;;;15.48;67.12;100770.94;5005198;28;1643;-57
2021/03/23 02:58:46;;;;;;;;;;;;;;;15.50;68.22;100778.81;5016394;28;1597;-63
2021/03/23 03:01:12;;;;;;;;;;;;;;;15.45;67.18;100773.81;5004973;28;1531;-61
2021/03/23 03:03:38;;;;;;;;;;;;;;;15.50;68.20;100778.81;5006471;28;1606;-57
2021/03/23 03:06:04;;;;;;;;;;;;;;;15.49;67.68;100791.28;5023306;28;1423;-56
2021/03/23 03:08:29;;;;;;;;;;;;;;;15.54;68.31;100782.09;5005988;28;1894;-58
2021/03/23 03:10:55;;;;;;;;;;;;;;;15.60;67.03;100777.19;5004297;28;1291;-59
2021/03/23 03:13:22;;;;;;;;;;;;;;;15.93;66.29;100764.13;4998377;28;1745;-62
2021/03/23 03:15:48;;;;;;;;;;;;;;;16.60;65.05;100772.31;5007188;28;1491;-62
2021/03/23 03:18:13;;;;;;;;;;;;;;;17.46;61.87;100765.47;5006333;28;1547;-59
2021/03/23 03:20:39;;;;;;;;;;;;;;;17.88;61.11;100765.59;5007877;28;1363;-59
2021/03/23 03:23:04;;;;;;;;;;;;;;;18.23;60.80;100755.59;5007692;28;1363;-59
2021/03/23 03:25:30;;;;;;;;;;;;;;;18.33;60.50;100761.03;5007773;28;1714;-62
2021/03/23 03:27:55;;;;;;;;;;;;;;;18.47;59.45;100771.38;5002204;28;1915;-59
2021/03/23 03:30:23;;;;;;;;;;;;;;;18.42;59.78;100762.88;5024468;28;1554;-62
2021/03/23 03:32:48;;;;;;;;;;;;;;;18.37;60.35;100767.81;5012840;28;1609;-62
2021/03/23 03:35:14;;;;;;;;;;;;;;;18.42;59.70;100757.53;5005926;28;1438;-62
2021/03/23 03:37:40;;;;;;;;;;;;;;;18.45;59.67;100766.16;5006837;28;1736;-59
2021/03/23 03:40:07;;;;;;;;;;;;;;;18.41;60.09;100763.88;5005210;28;1749;-59
2021/03/23 03:42:32;;;;;;;;;;;;;;;18.45;60.09;100776.88;4996236;28;1648;-62
2021/03/23 03:44:58;;;;;;;;;;;;;;;18.54;59.72;100774.38;5006394;28;892;-62
2021/03/23 03:47:23;;;;;;;;;;;;;;;18.58;59.28;100779.34;5007287;28;1894;-59
2021/03/23 03:49:48;;;;;;;;;;;;;;;18.05;60.71;100776.75;5004952;28;1682;-62
2021/03/23 03:52:14;;;;;;;;;;;;;;;17.41;61.91;100777.53;5009103;28;1562;-62
2021/03/23 03:54:39;;;;;;;;;;;;;;;17.01;63.13;100784.28;5003345;28;1300;-59
2021/03/23 03:57:05;;;;;;;;;;;;;;;16.74;64.43;100787.25;5009599;28;794;-59
2021/03/23 03:59:30;;;;;;;;;;;;;;;16.58;64.16;100794.78;5009178;28;1548;-59
2021/03/23 04:01:55;;;;;;;;;;;;;;;16.44;64.48;100787.81;4999533;28;1619;-59
2021/03/23 04:04:21;;;;;;;;;;;;;;;16.38;65.98;100798.97;5004828;28;1405;-62
2021/03/23 04:06:46;;;;;;;;;;;;;;;16.29;64.81;100790.72;5004051;28;1481;-62
2021/03/23 04:09:12;;;;;;;;;;;;;;;16.27;66.28;100803.31;5001803;28;1956;-62
2021/03/23 04:11:37;;;;;;;;;;;;;;;16.22;65.14;100794.81;5012978;28;1759;-62
2021/03/23 04:14:03;;;;;;;;;;;;;;;16.19;65.65;100808.34;5008675;28;1524;-62
2021/03/23 04:16:28;;;;;;;;;;;;;;;16.11;65.68;100816.09;5002802;28;1542;-62
2021/03/23 04:18:54;;;;;;;;;;;;;;;16.05;65.49;100806.72;5006251;28;1738;-62
2021/03/23 04:21:19;;;;;;;;;;;;;;;16.02;66.68;100811.47;4988078;28;10920;-62
2021/03/23 04:23:46;;;;;;;;;;;;;;;15.96;66.38;100826.09;4985805;28;1479;-62
2021/03/23 04:26:12;;;;;;;;;;;;;;;15.97;66.65;100826.94;4994685;28;1343;-62
2021/03/23 04:28:38;;;;;;;;;;;;;;;15.95;65.18;100823.56;4987606;28;1977;-62
2021/03/23 04:31:04;;;;;;;;;;;;;;;15.96;66.65;100830.59;5002398;28;1528;-62
2021/03/23 04:33:29;;;;;;;;;;;;;;;15.93;66.21;100830.81;4987537;28;1376;-62
2021/03/23 04:35:56;;;;;;;;;;;;;;;15.89;65.67;100835.50;4993555;28;1490;-62
2021/03/23 04:38:24;;;;;;;;;;;;;;;15.92;65.81;100840.63;4993284;28;1543;-62
2021/03/23 04:40:49;;;;;;;;;;;;;;;15.88;66.74;100823.16;4985739;28;869;-62
2021/03/23 04:43:23;;;;;;;;;;;;;;;15.85;66.20;100834.03;4981029;28;1770;-62
2021/03/23 04:45:49;;;;;;;;;;;;;;;15.81;67.10;100844.06;4991650;28;1402;-62
2021/03/23 04:48:15;;;;;;;;;;;;;;;15.80;67.18;100847.72;4982883;28;1890;-62
2021/03/23 04:50:40;;;;;;;;;;;;;;;15.83;66.74;100863.47;4986510;28;1397;-58
2021/03/23 04:53:05;;;;;;;;;;;;;;;15.77;66.87;100847.09;4999273;28;765;-62
2021/03/23 04:55:31;;;;;;;;;;;;;;;15.75;66.89;100847.19;4993741;28;1593;-62
2021/03/23 04:57:56;;;;;;;;;;;;;;;15.75;66.43;100847.19;4985305;28;1605;-62
2021/03/23 05:00:22;;;;;;;;;;;;;;;15.72;65.93;100860.75;4993429;28;1606;-62
2021/03/23 05:02:47;;;;;;;;;;;;;;;15.73;66.14;100865.13;4985603;28;1427;-62
2021/03/23 05:05:13;;;;;;;;;;;;;;;15.72;66.24;100855.41;4994433;28;1554;-62
2021/03/23 05:07:38;;;;;;;;;;;;;;;15.67;67.04;100854.88;4984903;28;1910;-62
2021/03/23 05:10:05;;;;;;;;;;;;;;;15.69;66.74;100866.28;4987681;28;1565;-62
2021/03/23 05:12:31;;;;;;;;;;;;;;;15.67;66.26;100868.19;4996212;28;1662;-62
2021/03/23 05:14:56;;;;;;;;;;;;;;;15.64;66.99;100869.28;4986691;28;853;-62
2021/03/23 05:17:21;;;;;;;;;;;;;;;15.65;66.05;100870.97;4993108;28;1474;-58
2021/03/23 05:19:47;;;;;;;;;;;;;;;15.65;66.46;100870.13;4987232;28;1662;-61
2021/03/23 05:22:12;;;;;;;;;;;;;;;15.63;66.33;100872.91;4991505;28;1559;-62
2021/03/23 05:24:38;;;;;;;;;;;;;;;15.61;66.23;100858.00;4992869;28;1595;-62
2021/03/23 05:27:04;;;;;;;;;;;;;;;15.63;67.37;100882.72;4997873;28;801;-58
2021/03/23 05:29:29;;;;;;;;;;;;;;;15.61;65.95;100873.97;4986272;28;1888;-58
2021/03/23 05:31:54;;;;;;;;;;;;;;;15.63;66.21;100888.06;4987824;28;1470;-58
2021/03/23 05:34:20;;;;;;;;;;;;;;;15.64;67.17;100884.44;4987773;28;1558;-58
2021/03/23 05:36:45;;;;;;;;;;;;;;;15.62;66.88;100886.38;4987544;28;1462;-58
2021/03/23 05:39:12;;;;;;;;;;;;;;;15.63;66.05;100885.38;4987648;28;1587;-62
2021/03/23 05:41:42;;;;;;;;;;;;;;;15.65;66.34;100886.13;4985376;28;1041;-62
2021/03/23 05:44:15;;;;;;;;;;;;;;;15.67;66.89;100894.88;5004837;28;11599;-58
2021/03/23 05:46:41;;;;;;;;;;;;;;;15.67;65.90;100905.53;5006442;28;1343;-62
2021/03/23 05:49:24;;;;;;;;;;;;;;;15.70;66.35;100889.31;5003462;28;1890;-62
2021/03/23 05:51:57;;;;;;;;;;;;;;;16.13;64.22;100904.88;5004885;28;1513;-59
2021/03/23 05:54:35;;;;;;;;;;;;;;;16.37;63.77;100912.84;5004191;28;1294;-62
2021/03/23 05:57:05;;;;;;;;;;;;;;;16.37;65.50;100893.34;5011222;28;973;-56
2021/03/23 05:59:34;;;;;;;;;;;;;;;16.22;64.97;100904.19;5003808;28;1354;-61
2021/03/23 06:02:03;;;;;;;;;;;;;;;16.13;64.93;100907.53;5007803;28;1521;-58
2021/03/23 06:04:42;;;;;;;;;;;;;;;16.09;64.90;100911.41;5009870;28;1276;-58
2021/03/23 06:07:12;;;;;;;;;;;;;;;15.95;65.70;100908.91;5008828;28;1577;-61
2021/03/23 06:09:38;;;;;;;;;;;;;;;15.81;65.42;100913.41;5002461;28;1989;-61
2021/03/23 06:12:15;;;;;;;;;;;;;;;15.70;64.14;100927.50;5008078;28;1110;-61
2021/03/23 06:14:47;;;;;;;;;;;;;;;15.83;65.57;100929.31;5005717;28;1537;-61
2021/03/23 06:17:24;;;;;;;;;;;;;;;15.84;67.36;100915.88;5007161;28;1700;-62
2021/03/23 06:19:49;;;;;;;;;;;;;;;15.93;67.01;100910.81;5009405;28;1450;-58
2021/03/23 06:22:14;;;;;;;;;;;;;;;15.97;67.75;100901.63;5012046;28;1673;-59
2021/03/23 06:24:45;;;;;;;;;;;;;;;15.98;67.91;100912.19;4997805;28;11085;-60
2021/03/23 06:27:26;;;;;;;;;;;;;;;15.98;67.81;100919.34;5012706;28;1415;-58
2021/03/23 06:29:54;;;;;;;;;;;;;;;16.00;68.46;100933.44;5015168;28;1399;-60
2021/03/23 06:32:26;;;;;;;;;;;;;;;16.03;66.54;100917.19;5010299;28;1450;-57
2021/03/23 06:34:55;;;;;;;;;;;;;;;16.19;66.79;100917.75;5004457;28;1478;-56
2021/03/23 06:37:23;;;;;;;;;;;;;;;16.45;66.25;100934.53;5004201;28;1409;-55
2021/03/23 06:39:48;;;;;;;;;;;;;;;16.64;65.61;100928.63;5010287;28;1200;-65
2021/03/23 06:42:28;;;;;;;;;;;;;;;16.78;66.78;100927.59;5006973;28;1025;-63
2021/03/23 06:45:06;;;;;;;;;;;;;;;16.94;65.26;100927.28;4993866;28;10987;-66
2021/03/23 06:47:32;;;;;;;;;;;;;;;17.15;65.05;100930.13;5008619;28;1977;-58
2021/03/23 06:50:13;;;;;;;;;;;;;;;17.19;65.49;100934.28;5001471;28;1474;-56
2021/03/23 06:52:38;;;;;;;;;;;;;;;17.26;65.53;100939.97;5005316;28;1570;-60
2021/03/23 06:55:18;;;;;;;;;;;;;;;17.24;65.34;100942.75;5006915;28;1704;-59
2021/03/23 06:57:43;;;;;;;;;;;;;;;17.22;64.82;100931.34;4997293;28;1327;-56
2021/03/23 07:00:15;;;;;;;;;;;;;;;17.21;62.88;100929.66;5002894;28;1409;-60
2021/03/23 07:02:46;;;;;;;;;;;;;;;17.25;65.00;100927.59;5015976;28;1526;-62
2021/03/23 07:05:17;;;;;;;;;;;;;;;17.30;65.24;100920.91;5007997;28;1550;-64
2021/03/23 07:07:58;;;;;;;;;;;;;;;17.36;64.56;100921.41;5004294;28;1971;-59
2021/03/23 07:10:25;;;;;;;;;;;;;;;17.46;64.15;100920.53;5008922;28;1220;-62
2021/03/23 07:12:53;;;;;;;;;;;;;;;17.50;63.61;100908.63;4998934;28;1542;-60
2021/03/23 07:15:23;;;;;;;;;;;;;;;17.61;63.18;100918.47;5005493;28;1300;-70
2021/03/23 07:18:11;;;;;;;;;;;;;;;17.72;63.46;100908.75;5013034;28;1539;-63
2021/03/23 07:20:37;;;;;;;;;;;;;;;17.73;63.04;100910.47;4998648;28;1696;-64
2021/03/23 07:23:04;;;;;;;;;;;;;;;17.88;62.82;100910.06;5006081;28;1398;-59
2021/03/23 07:25:40;;;;;;;;;;;;;;;17.95;62.62;100913.13;5011311;28;1741;-59
2021/03/23 07:28:12;;;;;;;;;;;;;;;17.88;62.76;100915.41;5017606;28;1983;-63
2021/03/23 07:30:40;;;;;;;;;;;;;;;18.01;63.25;100911.78;5007989;28;1277;-59
2021/03/23 07:33:10;;;;;;;;;;;;;;;18.03;62.46;100917.84;5009995;28;1398;-62
2021/03/23 07:35:37;;;;;;;;;;;;;;;18.12;62.93;100906.38;5003775;28;1556;-60
2021/03/23 07:38:05;;;;;;;;;;;;;;;18.18;62.67;100921.91;4999246;28;1504;-60
2021/03/23 07:40:38;;;;;;;;;;;;;;;18.15;62.47;100908.81;5008011;28;1987;-59
2021/03/23 07:43:17;;;;;;;;;;;;;;;18.13;62.68;100925.97;5012439;28;1416;-60
2021/03/23 07:45:51;;;;;;;;;;;;;;;18.28;62.50;100928.25;5005181;28;1568;-59
2021/03/23 07:48:36;;;;;;;;;;;;;;;18.37;62.28;100925.78;5009675;28;1890;-59
2021/03/23 07:51:31;;;;;;;;;;;;;;;18.44;62.02;100926.94;5003694;28;1632;-59
2021/03/23 07:54:15;;;;;;;;;;;;;;;18.53;61.85;100918.16;5001058;28;1449;-59
2021/03/23 07:56:47;;;;;;;;;;;;;;;18.61;61.63;100923.72;5003597;28;830;-59
2021/03/23 07:59:19;;;;;;;;;;;;;;;18.59;61.75;100911.44;5005115;28;1388;-59
2021/03/23 08:02:13;;;;;;;;;;;;;;;18.55;62.77;100928.75;5006016;28;1419;-73
2021/03/23 08:05:06;;;;;;;;;;;;;;;18.46;63.07;100919.63;5001009;28;1493;-61
2021/03/23 08:07:36;;;;;;;;;;;;;;;18.37;63.30;100915.06;5000292;28;1938;-61
2021/03/23 08:10:06;;;;;;;;;;;;;;;18.35;62.80;100925.03;5011764;28;1530;-61
2021/03/23 08:12:49;;;;;;;;;;;;;;;18.20;63.44;100911.94;5009719;28;1289;-60
2021/03/23 08:15:25;;;;;;;;;;;;;;;17.79;63.76;100851.94;5007290;28;1164;-61
2021/03/23 08:18:09;;;;;;;;;;;;;;;18.14;63.71;100907.09;5011229;28;1535;-62
2021/03/23 08:20:34;;;;;;;;;;;;;;;18.08;63.37;100904.91;5024853;28;1664;-71
2021/03/23 08:23:05;;;;;;;;;;;;;;;18.07;63.78;100904.06;5005406;28;861;-69
2021/03/23 08:25:33;;;;;;;;;;;;;;;17.97;64.16;100913.00;5004716;28;1874;-69
2021/03/23 08:28:19;;;;;;;;;;;;;;;17.93;63.87;100906.19;5001596;28;1973;-68
2021/03/23 08:30:56;;;;;;;;;;;;;;;17.83;64.26;100896.22;5011145;28;1556;-60
2021/03/23 08:33:40;;;;;;;;;;;;;;;17.74;64.21;100891.59;5001700;28;1382;-60
2021/03/23 08:36:15;;;;;;;;;;;;;;;17.75;64.56;100895.97;5004091;28;1355;-60
2021/03/23 08:38:59;;;;;;;;;;;;;;;17.78;63.90;100897.53;5015393;28;1381;-67
2021/03/23 08:41:32;;;;;;;;;;;;;;;17.84;64.42;100897.06;5013374;28;1432;-72
2021/03/23 08:43:58;;;;;;;;;;;;;;;17.79;64.16;100884.06;5005468;28;1459;-68
2021/03/23 08:46:26;;;;;;;;;;;;;;;17.74;63.21;100880.88;5004627;28;1392;-60
2021/03/23 08:48:58;;;;;;;;;;;;;;;17.81;63.29;100879.44;5007183;28;1955;-67
2021/03/23 08:51:24;;;;;;;;;;;;;;;17.78;62.84;100877.00;5009089;28;1434;-67
2021/03/23 08:53:49;;;;;;;;;;;;;;;17.80;63.09;100880.38;5004237;28;1451;-68
2021/03/23 08:56:15;;;;;;;;;;;;;;;17.79;63.34;100873.34;5006204;28;1438;-60
2021/03/23 08:58:45;;;;;;;;;;;;;;;17.78;63.52;100868.97;5012855;28;1565;-60
2021/03/23 09:01:26;;;;;;;;;;;;;;;17.74;63.71;100872.03;5009848;28;1388;-60
2021/03/23 09:04:04;;;;;;;;;;;;;;;17.77;63.91;100867.28;5010645;28;1447;-61
2021/03/23 09:06:46;;;;;;;;;;;;;;;17.73;63.66;100873.84;5005196;28;1446;-60
2021/03/23 09:09:19;;;;;;;;;;;;;;;17.92;63.24;100859.00;5000216;28;1953;-67
2021/03/23 09:11:47;;;;;;;;;;;;;;;17.87;63.29;100860.22;5014225;28;1158;-68
2021/03/23 09:14:18;;;;;;;;;;;;;;;17.89;63.61;100871.66;5011533;28;1509;-63
2021/03/23 09:16:52;;;;;;;;;;;;;;;18.01;62.51;100874.31;5005857;28;1551;-67
2021/03/23 09:19:33;;;;;;;;;;;;;;;18.03;62.36;100865.16;5008535;28;1548;-60
2021/03/23 09:21:58;;;;;;;;;;;;;;;18.11;62.78;100861.88;5006399;28;1297;-66
2021/03/23 09:24:29;;;;;;;;;;;;;;;18.17;63.20;100856.00;5009739;28;1598;-66
2021/03/23 09:26:55;;;;;;;;;;;;;;;18.22;62.76;100859.16;5002252;28;1320;-72
2021/03/23 09:29:39;;;;;;;;;;;;;;;18.27;63.35;100843.53;5009483;28;1918;-68
2021/03/23 09:32:10;;;;;;;;;;;;;;;18.25;63.45;100844.66;5015201;28;1538;-70
2021/03/23 09:34:54;;;;;;;;;;;;;;;18.21;63.29;100841.38;5006510;28;1226;-61
2021/03/23 09:37:28;;;;;;;;;;;;;;;18.23;63.58;100846.59;5006335;28;1329;-63
2021/03/23 09:39:54;;;;;;;;;;;;;;;18.22;63.26;100848.44;5010238;28;1393;-60
2021/03/23 09:42:22;;;;;;;;;;;;;;;18.23;63.57;100847.44;5014263;28;1345;-61
2021/03/23 09:44:59;;;;;;;;;;;;;;;18.22;63.01;100844.91;5008237;28;1580;-65
2021/03/23 09:47:39;;;;;;;;;;;;;;;18.24;63.05;100835.78;5010128;28;1902;-61
2021/03/23 09:50:20;;;;;;;;;;;;;;;18.25;63.38;100839.28;5010576;28;1451;-63
2021/03/23 09:52:45;;;;;;;;;;;;;;;18.21;63.29;100838.69;5008378;28;1488;-58
2021/03/23 09:55:11;;;;;;;;;;;;;;;18.20;63.80;100814.72;5006690;28;1694;-59
2021/03/23 09:57:36;;;;;;;;;;;;;;;18.14;63.85;100818.78;5002979;28;1400;-61
2021/03/23 10:00:12;;;;;;;;;;;;;;;18.13;64.11;100830.47;5005831;28;1459;-63
2021/03/23 10:02:37;;;;;;;;;;;;;;;18.13;63.85;100825.13;5003498;28;1514;-64
2021/03/23 10:05:22;;;;;;;;;;;;;;;18.12;64.29;100819.88;5008486;28;1733;-64
2021/03/23 10:07:50;;;;;;;;;;;;;;;18.11;64.47;100816.38;5006901;28;1894;-60
2021/03/23 10:10:25;;;;;;;;;;;;;;;18.09;64.06;100819.16;5001877;28;1607;-60
2021/03/23 10:12:50;;;;;;;;;;;;;;;18.09;63.87;100819.16;4958060;28;1648;-60
2021/03/23 10:15:21;;;;;;;;;;;;;;;18.11;64.32;100802.16;4962561;28;1526;-57
2021/03/23 10:17:46;;;;;;;;;;;;;;;18.13;64.24;100809.06;4972447;28;1409;-60
2021/03/23 10:20:16;;;;;;;;;;;;;;;17.93;64.40;100804.53;4968549;28;1981;-63
2021/03/23 10:22:51;;;;;;;;;;;;;;;17.95;64.48;100799.91;4966664;28;1603;-60
2021/03/23 10:25:17;;;;;;;;;;;;;;;17.80;61.59;100799.28;4963881;28;1679;-60
2021/03/23 10:27:42;;;;;;;;;;;;;;;17.77;64.07;100807.59;4962578;28;1994;-62
2021/03/23 10:30:11;;;;;;;;;;;;;;;17.83;64.63;100807.97;4972874;28;1196;-62
2021/03/23 10:32:36;;;;;;;;;;;;;;;17.87;64.76;100813.91;4965224;28;1243;-60
2021/03/23 10:35:01;;;;;;;;;;;;;;;17.84;63.95;100801.63;4972497;28;1411;-62
2021/03/23 10:37:27;;;;;;;;;;;;;;;17.84;64.30;100803.44;4965197;28;1770;-60
2021/03/23 10:39:52;;;;;;;;;;;;;;;17.84;63.84;100808.81;4967048;28;1428;-60
2021/03/23 10:42:26;;;;;;;;;;;;;;;17.81;64.33;100791.16;4964553;28;1598;-60
2021/03/23 10:45:11;;;;;;;;;;;;;;;17.80;64.11;100799.28;4965495;28;1786;-62
2021/03/23 10:47:43;;;;;;;;;;;;;;;17.77;64.12;100803.09;4967680;28;1952;-62
2021/03/23 10:50:16;;;;;;;;;;;;;;;17.78;64.16;100807.44;4965384;28;1536;-60
2021/03/23 10:52:41;;;;;;;;;;;;;;;17.83;61.69;100788.34;4975329;28;1643;-62
2021/03/23 10:55:27;;;;;;;;;;;;;;;17.80;62.96;100805.50;4962619;28;1646;-60
2021/03/23 10:58:13;;;;;;;;;;;;;;;17.76;62.71;100781.81;4959692;28;1680;-60
2021/03/23 11:00:39;;;;;;;;;;;;;;;17.74;62.55;100784.59;4973031;28;1386;-59
2021/03/23 11:03:34;;;;;;;;;;;;;;;17.78;63.17;100802.09;4966186;28;1565;-60
2021/03/23 11:06:01;;;;;;;;;;;;;;;17.74;62.96;100795.28;4967400;28;1361;-62
2021/03/23 11:08:26;;;;;;;;;;;;;;;17.74;62.08;100789.94;4966730;28;1898;-62
2021/03/23 11:10:54;;;;;;;;;;;;;;;17.73;63.04;100780.25;4973629;28;1325;-60
2021/03/23 11:13:20;;;;;;;;;;;;;;;17.72;62.90;100783.88;5023477;28;1700;-60
2021/03/23 11:15:47;;;;;;;;;;;;;;;17.74;62.70;100778.41;5007203;28;1555;-60
2021/03/23 11:18:30;;;;;;;;;;;;;;;17.70;63.78;100773.31;5009209;28;1401;-59
2021/03/23 11:20:56;;;;;;;;;;;;;;;17.79;62.93;100785.09;5006107;28;1352;-59
2021/03/23 11:23:36;;;;;;;;;;;;;;;17.82;62.52;100770.59;4999678;28;1320;-61
2021/03/23 11:26:02;;;;;;;;;;;;;;;17.91;62.83;100790.44;5006994;28;1378;-58
2021/03/23 11:28:30;;;;;;;;;;;;;;;17.91;61.15;100779.72;5008335;28;1968;-61
2021/03/23 11:30:55;;;;;;;;;;;;;;;17.89;61.85;100788.72;5006963;28;1407;-58
2021/03/23 11:33:20;;;;;;;;;;;;;;;17.89;62.00;100778.03;4999678;28;1252;-58
2021/03/23 11:35:46;;;;;;;;;;;;;;;17.95;61.18;100781.16;5003727;28;1543;-58
2021/03/23 11:38:12;;;;;;;;;;;;;;;17.87;62.05;100769.28;5003482;28;1256;-65
2021/03/23 11:40:38;;;;;;;;;;;;;;;17.87;62.33;100771.94;5009091;28;1303;-60
2021/03/23 11:43:04;;;;;;;;;;;;;;;17.80;62.27;100768.03;5010387;28;1805;-60
2021/03/23 11:45:35;;;;;;;;;;;;;;;17.85;61.93;100778.41;4999916;28;1395;-60
2021/03/23 11:48:04;;;;;;;;;;;;;;;17.77;62.81;100762.97;5006393;28;1890;-61
2021/03/23 11:50:31;;;;;;;;;;;;;;;17.83;61.92;100767.84;5002201;28;1327;-60
2021/03/23 11:52:56;;;;;;;;;;;;;;;17.86;62.43;100767.56;5000510;28;1192;-68
2021/03/23 11:55:27;;;;;;;;;;;;;;;17.85;62.36;100755.19;5006040;28;1483;-64
2021/03/23 11:57:52;;;;;;;;;;;;;;;17.78;63.04;100763.81;5003145;28;1412;-59
2021/03/23 12:00:18;;;;;;;;;;;;;;;17.80;61.92;100761.84;5003444;28;1343;-64
2021/03/23 12:02:43;;;;;;;;;;;;;;;17.79;60.44;100766.34;5021443;28;1470;-59
2021/03/23 12:05:10;;;;;;;;;;;;;;;17.69;61.68;100765.44;5009040;28;1517;-62
2021/03/23 12:07:47;;;;;;;;;;;;;;;17.62;62.80;100772.25;5008694;28;1898;-65
2021/03/23 12:10:12;;;;;;;;;;;;;;;17.59;62.21;100769.84;5005786;28;1435;-60
2021/03/23 12:12:40;;;;;;;;;;;;;;;17.61;62.82;100771.41;5011807;28;1357;-59
2021/03/23 12:15:10;;;;;;;;;;;;;;;17.69;62.66;100757.41;5012755;28;1236;-67
2021/03/23 12:17:36;;;;;;;;;;;;;;;17.83;62.80;100775.84;5002224;28;1205;-60
2021/03/23 12:20:05;;;;;;;;;;;;;;;17.78;61.96;100745.09;5003714;28;1615;-60
2021/03/23 12:22:30;;;;;;;;;;;;;;;17.76;62.52;100745.19;5011763;28;1395;-60
2021/03/23 12:24:56;;;;;;;;;;;;;;;17.76;62.27;100765.75;4999858;28;1288;-60
2021/03/23 12:27:21;;;;;;;;;;;;;;;17.73;62.24;100748.16;5010627;28;1360;-61
2021/03/23 12:29:47;;;;;;;;;;;;;;;17.76;62.12;100747.88;5009286;28;1954;-61
2021/03/23 12:32:15;;;;;;;;;;;;;;;17.92;62.14;100739.44;5005253;28;1537;-63
2021/03/23 12:34:40;;;;;;;;;;;;;;;18.00;61.38;100741.47;5008665;28;1708;-68
2021/03/23 12:37:06;;;;;;;;;;;;;;;18.00;61.93;100753.03;5009758;28;1628;-66
2021/03/23 12:39:31;;;;;;;;;;;;;;;18.09;60.82;100746.91;5008866;28;1446;-60
2021/03/23 12:41:56;;;;;;;;;;;;;;;18.05;61.29;100748.16;5007746;28;1386;-61
2021/03/23 12:44:22;;;;;;;;;;;;;;;18.11;61.76;100749.47;5008101;28;1545;-63
2021/03/23 12:46:47;;;;;;;;;;;;;;;18.07;61.23;100748.88;5003252;28;1486;-63
2021/03/23 12:49:13;;;;;;;;;;;;;;;18.07;61.65;100742.69;5007531;28;1890;-57
2021/03/23 12:51:39;;;;;;;;;;;;;;;18.01;61.76;100746.72;5005543;28;1280;-57
2021/03/23 12:54:10;;;;;;;;;;;;;;;18.06;61.88;100740.97;5008656;28;1490;-58
2021/03/23 12:56:36;;;;;;;;;;;;;;;18.03;62.05;100730.53;5008908;28;1269;-57